createdAt,value
2019-03-04T00:00:44.470Z,13.19
2019-03-04T00:03:14.538Z,13.14
2019-03-04T00:05:44.046Z,13.09
2019-03-04T00:08:13.419Z,13.10
2019-03-04T00:10:42.758Z,13.25
2019-03-04T00:13:12.358Z,13.23
2019-03-04T00:15:41.830Z,13.22
2019-03-04T00:18:11.360Z,13.20
2019-03-04T00:20:40.853Z,13.23
2019-03-04T00:23:10.475Z,13.29
2019-03-04T00:25:40.166Z,13.30
2019-03-04T00:28:09.762Z,13.41
2019-03-04T00:30:39.197Z,13.50
2019-03-04T00:33:08.498Z,13.65
2019-03-04T00:35:37.987Z,13.62
2019-03-04T00:38:07.302Z,13.60
2019-03-04T00:40:36.685Z,13.64
2019-03-04T00:43:06.188Z,13.63
2019-03-04T00:45:35.520Z,13.68
2019-03-04T00:48:05.422Z,13.65
2019-03-04T00:50:34.726Z,13.63
2019-03-04T00:53:04.418Z,13.66
2019-03-04T00:55:33.722Z,13.62
2019-03-04T00:58:03.861Z,13.65
2019-03-04T01:00:33.188Z,13.61
2019-03-04T01:03:02.620Z,13.62
2019-03-04T01:05:31.912Z,13.60
2019-03-04T01:08:01.448Z,13.59
2019-03-04T01:10:31.167Z,13.48
2019-03-04T01:13:00.508Z,13.37
2019-03-04T01:15:29.880Z,13.37
2019-03-04T01:17:59.485Z,13.28
2019-03-04T01:20:28.803Z,13.24
2019-03-04T01:22:58.269Z,13.32
2019-03-04T01:25:27.576Z,13.25
2019-03-04T01:27:57.439Z,13.24
2019-03-04T01:30:26.770Z,13.14
2019-03-04T01:32:56.548Z,13.16
2019-03-04T01:35:25.899Z,13.17
2019-03-04T01:37:55.541Z,13.04
2019-03-04T01:40:25.068Z,13.01
2019-03-04T01:42:54.923Z,12.94
2019-03-04T01:45:24.250Z,12.90
2019-03-04T01:47:53.696Z,12.82
2019-03-04T01:50:23.088Z,12.84
2019-03-04T01:52:54.445Z,12.81
2019-03-04T01:55:24.123Z,12.82
2019-03-04T01:57:53.453Z,12.86
2019-03-04T02:00:23.456Z,12.88
2019-03-04T02:02:52.761Z,12.93
2019-03-04T02:05:22.124Z,12.85
2019-03-04T02:07:51.513Z,12.64
2019-03-04T02:10:21.309Z,12.80
2019-03-04T02:12:50.789Z,12.88
2019-03-04T02:15:20.901Z,12.90
2019-03-04T02:17:50.289Z,12.97
2019-03-04T02:20:20.029Z,13.00
2019-03-04T02:22:50.031Z,13.18
2019-03-04T02:25:24.691Z,13.13
2019-03-04T02:27:56.972Z,13.18
2019-03-04T02:30:28.309Z,13.17
2019-03-04T02:32:57.590Z,13.19
2019-03-04T02:35:26.896Z,13.22
2019-03-04T02:37:56.500Z,13.23
2019-03-04T02:40:27.720Z,13.27
2019-03-04T02:42:57.657Z,13.25
2019-03-04T02:45:26.952Z,13.21
2019-03-04T02:47:56.807Z,13.20
2019-03-04T02:50:26.106Z,13.21
2019-03-04T02:52:55.499Z,13.03
2019-03-04T02:55:24.796Z,13.22
2019-03-04T02:57:54.069Z,13.21
2019-03-04T03:00:23.367Z,13.21
2019-03-04T03:02:52.636Z,13.15
2019-03-04T03:05:21.936Z,13.14
2019-03-04T03:07:51.320Z,13.12
2019-03-04T03:10:20.787Z,13.02
2019-03-04T03:12:50.092Z,13.09
2019-03-04T03:15:21.036Z,13.24
2019-03-04T03:17:50.338Z,13.12
2019-03-04T03:20:19.648Z,13.08
2019-03-04T03:22:49.254Z,13.04
2019-03-04T03:25:21.478Z,12.96
2019-03-04T03:27:52.565Z,12.91
2019-03-04T03:30:23.448Z,12.88
2019-03-04T03:32:53.807Z,12.93
2019-03-04T03:35:25.686Z,13.03
2019-03-04T03:37:55.225Z,13.00
2019-03-04T03:40:24.602Z,12.97
2019-03-04T03:42:53.879Z,12.92
2019-03-04T03:45:23.174Z,12.94
2019-03-04T03:47:52.963Z,12.89
2019-03-04T03:50:22.565Z,12.85
2019-03-04T03:52:51.831Z,12.82
2019-03-04T03:55:21.694Z,12.79
2019-03-04T03:57:51.001Z,12.76
2019-03-04T04:00:25.020Z,12.80
2019-03-04T04:02:54.392Z,12.80
2019-03-04T04:05:23.704Z,12.78
2019-03-04T04:07:53.186Z,12.82
2019-03-04T04:10:22.967Z,12.84
2019-03-04T04:12:52.240Z,12.82
2019-03-04T04:15:22.268Z,12.92
2019-03-04T04:17:51.571Z,12.97
2019-03-04T04:20:20.860Z,13.00
2019-03-04T04:22:50.177Z,12.95
2019-03-04T04:25:20.135Z,12.90
2019-03-04T04:27:49.438Z,12.78
2019-03-04T04:30:21.316Z,12.73
2019-03-04T04:32:50.616Z,12.73
2019-03-04T04:35:20.431Z,12.64
2019-03-04T04:37:49.778Z,12.63
2019-03-04T04:40:19.348Z,12.65
2019-03-04T04:42:48.650Z,12.72
2019-03-04T04:45:17.920Z,12.74
2019-03-04T04:47:47.305Z,12.91
2019-03-04T04:50:28.013Z,12.81
2019-03-04T04:52:57.419Z,12.84
2019-03-04T04:55:26.721Z,12.87
2019-03-04T04:57:55.986Z,12.91
2019-03-04T05:00:25.554Z,12.91
2019-03-04T05:02:54.935Z,12.86
2019-03-04T05:05:24.710Z,12.86
2019-03-04T05:07:54.215Z,12.81
2019-03-04T05:10:25.044Z,12.89
2019-03-04T05:12:54.347Z,12.86
2019-03-04T05:15:24.127Z,12.86
2019-03-04T05:17:53.419Z,12.69
2019-03-04T05:20:27.445Z,12.96
2019-03-04T05:22:56.747Z,12.90
2019-03-04T05:25:26.018Z,13.01
2019-03-04T05:27:55.343Z,12.93
2019-03-04T05:30:25.298Z,12.88
2019-03-04T05:32:54.568Z,12.97
2019-03-04T05:35:24.019Z,12.96
2019-03-04T05:37:53.290Z,12.97
2019-03-04T05:40:23.649Z,12.97
2019-03-04T05:42:52.949Z,13.17
2019-03-04T05:45:22.459Z,13.06
2019-03-04T05:47:51.814Z,13.03
2019-03-04T05:50:23.896Z,13.06
2019-03-04T05:52:53.234Z,12.98
2019-03-04T05:55:22.605Z,13.00
2019-03-04T05:57:52.131Z,13.02
2019-03-04T06:00:25.013Z,13.00
2019-03-04T06:03:03.506Z,13.07
2019-03-04T06:05:32.832Z,13.06
2019-03-04T06:08:13.270Z,13.08
2019-03-04T06:10:42.565Z,13.07
2019-03-04T06:13:12.064Z,13.10
2019-03-04T06:15:41.379Z,13.12
2019-03-04T06:18:10.663Z,13.14
2019-03-04T06:20:39.970Z,13.13
2019-03-04T06:23:09.266Z,13.06
2019-03-04T06:25:38.573Z,13.11
2019-03-04T06:28:07.846Z,13.12
2019-03-04T06:30:37.120Z,13.16
2019-03-04T06:33:06.426Z,13.03
2019-03-04T06:35:35.700Z,12.92
2019-03-04T06:38:05.070Z,12.95
2019-03-04T06:40:34.325Z,12.95
2019-03-04T06:43:04.188Z,13.00
2019-03-04T06:45:33.523Z,12.96
2019-03-04T06:48:02.830Z,12.97
2019-03-04T06:50:52.775Z,13.01
2019-03-04T06:53:31.144Z,12.99
2019-03-04T06:56:06.421Z,12.98
2019-03-04T06:59:00.978Z,12.99
2019-03-04T07:01:51.488Z,12.94
2019-03-04T07:04:26.662Z,11.57
2019-03-04T07:06:55.952Z,10.70
2019-03-04T07:09:25.264Z,10.38
2019-03-04T07:11:54.535Z,10.29
2019-03-04T07:14:23.918Z,10.24
2019-03-04T07:16:53.224Z,10.18
2019-03-04T07:19:22.587Z,10.09
2019-03-04T07:21:52.167Z,10.07
2019-03-04T07:24:21.478Z,10.12
2019-03-04T07:26:50.758Z,10.08
2019-03-04T07:29:20.059Z,10.12
2019-03-04T07:31:49.371Z,10.17
2019-03-04T07:34:18.773Z,10.16
2019-03-04T07:36:48.075Z,10.28
2019-03-04T07:39:17.429Z,10.42
2019-03-04T07:41:46.731Z,10.43
2019-03-04T07:44:16.120Z,10.44
2019-03-04T07:46:45.407Z,10.42
2019-03-04T07:49:14.724Z,10.32
2019-03-04T07:51:43.995Z,10.17
2019-03-04T07:54:13.299Z,10.11
2019-03-04T07:56:42.589Z,10.13
2019-03-04T07:59:11.893Z,9.93
2019-03-04T08:01:41.262Z,9.98
2019-03-04T08:04:10.605Z,9.96
2019-03-04T08:06:39.915Z,10.21
2019-03-04T08:09:17.574Z,10.01
2019-03-04T08:12:01.235Z,10.09
2019-03-04T08:14:30.496Z,10.18
2019-03-04T08:16:59.797Z,10.30
2019-03-04T08:19:29.114Z,10.26
2019-03-04T08:21:58.519Z,10.84
2019-03-04T08:24:27.801Z,11.32
2019-03-04T08:26:57.185Z,11.28
2019-03-04T08:29:26.474Z,11.25
2019-03-04T08:31:55.766Z,12.01
2019-03-04T08:34:31.045Z,12.52
2019-03-04T08:36:56.114Z,12.80
2019-03-04T08:39:25.456Z,12.01
2019-03-04T08:41:54.758Z,11.49
2019-03-04T08:44:24.049Z,11.38
2019-03-04T08:46:53.352Z,12.22
2019-03-04T08:49:22.736Z,12.85
2019-03-04T08:51:52.052Z,13.36
2019-03-04T08:54:21.344Z,14.28
2019-03-04T08:56:50.638Z,13.98
2019-03-04T08:59:20.494Z,13.70
2019-03-04T09:01:49.777Z,13.77
2019-03-04T09:04:19.101Z,13.58
2019-03-04T09:06:48.401Z,13.82
2019-03-04T09:09:17.706Z,13.59
2019-03-04T09:11:47.320Z,13.34
2019-03-04T09:14:16.641Z,13.16
2019-03-04T09:16:46.014Z,12.75
2019-03-04T09:19:15.402Z,12.37
2019-03-04T09:21:44.672Z,12.43
2019-03-04T09:24:13.987Z,11.79
2019-03-04T09:26:43.414Z,11.99
2019-03-04T09:29:12.778Z,11.95
2019-03-04T09:31:42.172Z,11.77
2019-03-04T09:34:11.571Z,11.65
2019-03-04T09:36:40.858Z,11.74
2019-03-04T09:39:11.950Z,11.78
2019-03-04T09:41:41.223Z,11.70
2019-03-04T09:44:10.618Z,11.69
2019-03-04T09:46:40.023Z,11.63
2019-03-04T09:49:09.329Z,11.77
2019-03-04T09:51:38.797Z,11.73
2019-03-04T09:54:08.096Z,11.73
2019-03-04T09:56:37.458Z,11.94
2019-03-04T09:59:06.793Z,11.76
2019-03-04T10:01:41.981Z,11.98
2019-03-04T10:04:23.207Z,11.95
2019-03-04T10:07:04.960Z,11.89
2019-03-04T10:09:49.218Z,11.79
2019-03-04T10:12:30.331Z,11.85
2019-03-04T10:15:20.474Z,11.83
2019-03-04T10:18:14.851Z,11.61
2019-03-04T10:20:53.267Z,12.00
2019-03-04T10:23:41.929Z,12.27
2019-03-04T10:26:22.120Z,12.57
2019-03-04T10:28:53.951Z,13.00
2019-03-04T10:31:26.262Z,13.53
2019-03-04T10:34:04.552Z,13.44
2019-03-04T10:36:53.570Z,13.12
2019-03-04T10:39:37.874Z,12.96
2019-03-04T10:42:31.176Z,12.93
2019-03-04T10:45:20.073Z,13.51
2019-03-04T10:47:49.884Z,13.42
2019-03-04T10:50:19.490Z,13.12
2019-03-04T10:52:49.507Z,13.09
2019-03-04T10:55:19.306Z,13.85
2019-03-04T10:57:48.900Z,13.46
2019-03-04T11:00:19.411Z,13.55
2019-03-04T11:02:48.715Z,14.44
2019-03-04T11:05:18.231Z,15.19
2019-03-04T11:07:47.608Z,14.89
2019-03-04T11:10:17.212Z,14.13
2019-03-04T11:12:46.877Z,14.69
2019-03-04T11:15:19.125Z,14.53
2019-03-04T11:17:48.520Z,14.55
2019-03-04T11:20:17.832Z,13.84
2019-03-04T11:22:47.596Z,13.68
2019-03-04T11:25:18.981Z,14.09
2019-03-04T11:27:48.809Z,14.49
2019-03-04T11:30:29.638Z,14.94
2019-03-04T11:32:59.274Z,14.60
2019-03-04T11:35:28.836Z,14.31
2019-03-04T11:37:58.505Z,14.10
2019-03-04T11:40:34.940Z,14.19
2019-03-04T11:43:04.660Z,13.73
2019-03-04T11:45:34.166Z,13.74
2019-03-04T11:48:03.958Z,13.65
2019-03-04T11:50:33.667Z,14.34
2019-03-04T11:53:03.035Z,14.12
2019-03-04T11:55:33.185Z,13.53
2019-03-04T11:58:02.804Z,13.22
2019-03-04T12:00:42.456Z,12.97
2019-03-04T12:03:12.297Z,12.89
2019-03-04T12:05:42.164Z,12.85
2019-03-04T12:08:13.890Z,13.14
2019-03-04T12:10:43.389Z,13.12
2019-03-04T12:13:13.443Z,13.80
2019-03-04T12:15:43.000Z,13.35
2019-03-04T12:18:12.891Z,12.99
2019-03-04T12:20:42.222Z,12.51
2019-03-04T12:23:11.699Z,10.49
2019-03-04T12:25:41.019Z,8.76
2019-03-04T12:28:10.444Z,7.66
2019-03-04T12:30:40.247Z,7.05
2019-03-04T12:33:10.665Z,7.21
2019-03-04T12:35:40.150Z,7.63
2019-03-04T12:38:09.833Z,7.63
2019-03-04T12:40:40.897Z,7.87
2019-03-04T12:43:10.395Z,7.87
2019-03-04T12:45:39.868Z,7.84
2019-03-04T12:48:10.756Z,7.99
2019-03-04T12:50:40.334Z,8.29
2019-03-04T12:53:09.706Z,8.16
2019-03-04T12:55:39.017Z,8.52
2019-03-04T12:58:08.296Z,8.51
2019-03-04T13:00:38.105Z,8.42
2019-03-04T13:03:09.185Z,8.68
2019-03-04T13:05:38.588Z,8.53
2019-03-04T13:08:07.941Z,8.52
2019-03-04T13:10:37.314Z,8.61
2019-03-04T13:13:06.608Z,8.84
2019-03-04T13:15:37.947Z,9.58
2019-03-04T13:18:12.390Z,9.83
2019-03-04T13:20:42.181Z,9.45
2019-03-04T13:23:11.906Z,9.45
2019-03-04T13:25:41.484Z,9.31
2019-03-04T13:28:10.859Z,9.35
2019-03-04T13:30:41.934Z,9.27
2019-03-04T13:33:11.704Z,9.66
2019-03-04T13:35:42.539Z,9.52
2019-03-04T13:38:12.285Z,9.39
2019-03-04T13:40:41.579Z,9.10
2019-03-04T13:43:10.959Z,9.14
2019-03-04T13:45:40.759Z,9.27
2019-03-04T13:48:10.202Z,9.16
2019-03-04T13:50:39.920Z,9.24
2019-03-04T13:53:09.412Z,9.06
2019-03-04T13:55:38.814Z,9.06
2019-03-04T13:58:08.198Z,9.24
2019-03-04T14:00:39.771Z,9.24
2019-03-04T14:03:09.183Z,9.16
2019-03-04T14:05:38.473Z,9.35
2019-03-04T14:08:07.807Z,9.45
2019-03-04T14:10:39.767Z,9.45
2019-03-04T14:13:09.130Z,9.33
2019-03-04T14:15:49.415Z,9.39
2019-03-04T14:18:19.629Z,9.39
2019-03-04T14:20:49.010Z,9.39
2019-03-04T14:23:18.457Z,9.85
2019-03-04T14:25:49.786Z,9.96
2019-03-04T14:28:18.874Z,10.11
2019-03-04T14:30:48.301Z,9.96
2019-03-04T14:33:18.213Z,9.95
2019-03-04T14:35:47.814Z,9.76
2019-03-04T14:38:17.304Z,10.08
2019-03-04T14:40:46.958Z,10.01
2019-03-04T14:43:16.240Z,10.00
2019-03-04T14:45:45.632Z,10.15
2019-03-04T14:48:15.133Z,10.22
2019-03-04T14:50:44.782Z,10.07
2019-03-04T14:53:14.263Z,10.03
2019-03-04T14:55:44.921Z,9.95
2019-03-04T14:58:14.301Z,9.90
2019-03-04T15:00:51.390Z,9.76
2019-03-04T15:03:23.657Z,9.74
2019-03-04T15:05:51.978Z,9.75
2019-03-04T15:08:21.415Z,9.76
2019-03-04T15:10:50.683Z,9.66
2019-03-04T15:13:20.113Z,9.78
2019-03-04T15:15:49.387Z,9.80
2019-03-04T15:18:18.752Z,9.77
2019-03-04T15:20:48.129Z,9.88
2019-03-04T15:23:17.578Z,9.87
2019-03-04T15:25:47.227Z,10.03
2019-03-04T15:28:19.695Z,9.77
2019-03-04T15:31:00.779Z,9.64
2019-03-04T15:33:30.120Z,9.64
2019-03-04T15:35:59.824Z,9.70
2019-03-04T15:38:29.376Z,9.80
2019-03-04T15:40:58.695Z,9.94
2019-03-04T15:43:28.082Z,9.86
2019-03-04T15:45:59.582Z,9.87
2019-03-04T15:48:29.607Z,9.90
2019-03-04T15:50:59.131Z,9.73
2019-03-04T15:53:28.510Z,9.94
2019-03-04T15:55:57.907Z,9.72
2019-03-04T15:58:27.713Z,9.82
2019-03-04T16:00:57.251Z,9.83
2019-03-04T16:03:26.549Z,9.86
2019-03-04T16:05:56.022Z,9.94
2019-03-04T16:08:25.391Z,9.75
2019-03-04T16:10:54.736Z,9.75
2019-03-04T16:13:24.082Z,9.93
2019-03-04T16:15:53.440Z,9.88
2019-03-04T16:18:22.836Z,10.03
2019-03-04T16:20:52.377Z,9.96
2019-03-04T16:23:21.836Z,9.83
2019-03-04T16:25:51.319Z,9.81
2019-03-04T16:28:26.137Z,9.76
2019-03-04T16:30:55.608Z,9.76
2019-03-04T16:33:25.830Z,9.80
2019-03-04T16:35:55.269Z,9.80
2019-03-04T16:38:24.636Z,9.74
2019-03-04T16:40:54.132Z,9.74
2019-03-04T16:43:23.592Z,9.66
2019-03-04T16:45:52.869Z,9.68
2019-03-04T16:48:22.338Z,9.62
2019-03-04T16:50:51.759Z,9.55
2019-03-04T16:53:32.567Z,9.56
2019-03-04T16:56:01.828Z,9.56
2019-03-04T16:58:31.136Z,9.35
2019-03-04T17:01:00.391Z,9.35
2019-03-04T17:03:29.703Z,9.33
2019-03-04T17:05:59.081Z,9.33
2019-03-04T17:08:28.742Z,9.34
2019-03-04T17:10:58.092Z,9.24
2019-03-04T17:13:27.558Z,9.17
2019-03-04T17:15:57.023Z,9.17
2019-03-04T17:18:26.301Z,9.11
2019-03-04T17:20:55.776Z,9.12
2019-03-04T17:23:25.121Z,9.09
2019-03-04T17:25:54.566Z,9.10
2019-03-04T17:28:24.560Z,9.01
2019-03-04T17:30:53.973Z,8.97
2019-03-04T17:33:23.317Z,9.01
2019-03-04T17:35:52.736Z,9.02
2019-03-04T17:38:22.029Z,8.92
2019-03-04T17:40:51.391Z,8.96
2019-03-04T17:43:20.786Z,8.85
2019-03-04T17:45:50.330Z,8.94
2019-03-04T17:48:20.092Z,8.86
2019-03-04T17:50:49.431Z,8.83
2019-03-04T17:53:19.181Z,8.82
2019-03-04T17:55:48.488Z,8.75
2019-03-04T17:58:17.938Z,8.71
2019-03-04T18:00:48.922Z,8.71
2019-03-04T18:03:18.194Z,8.74
2019-03-04T18:05:47.595Z,8.73
2019-03-04T18:08:16.976Z,8.81
2019-03-04T18:10:46.341Z,8.77
2019-03-04T18:13:16.921Z,8.80
2019-03-04T18:15:46.233Z,8.80
2019-03-04T18:18:15.634Z,8.74
2019-03-04T18:20:45.006Z,8.74
2019-03-04T18:23:14.384Z,8.75
2019-03-04T18:25:46.578Z,8.70
2019-03-04T18:28:44.230Z,8.75
2019-03-04T18:31:28.599Z,8.68
2019-03-04T18:34:23.396Z,8.68
2019-03-04T18:37:11.808Z,8.64
2019-03-04T18:39:46.995Z,8.68
2019-03-04T18:42:37.202Z,8.69
2019-03-04T18:45:30.573Z,8.70
2019-03-04T18:48:31.496Z,8.70
2019-03-04T18:51:00.848Z,8.67
2019-03-04T18:53:30.474Z,8.70
2019-03-04T18:55:59.833Z,8.71
2019-03-04T18:58:29.277Z,8.58
2019-03-04T19:00:58.627Z,8.71
2019-03-04T19:03:27.935Z,8.59
2019-03-04T19:05:57.223Z,8.75
2019-03-04T19:08:26.585Z,8.72
2019-03-04T19:10:55.943Z,8.74
2019-03-04T19:13:25.646Z,8.71
2019-03-04T19:15:54.946Z,8.63
2019-03-04T19:18:24.924Z,8.71
2019-03-04T19:20:54.499Z,8.56
2019-03-04T19:23:24.014Z,8.65
2019-03-04T19:25:53.495Z,8.65
2019-03-04T19:28:22.880Z,8.72
2019-03-04T19:30:53.457Z,8.58
2019-03-04T19:33:23.004Z,8.84
2019-03-04T19:35:52.498Z,8.64
2019-03-04T19:38:22.114Z,8.54
2019-03-04T19:40:51.811Z,8.64
2019-03-04T19:43:21.192Z,8.48
2019-03-04T19:45:50.617Z,8.44
2019-03-04T19:48:20.459Z,8.49
2019-03-04T19:50:50.003Z,8.46
2019-03-04T19:53:19.424Z,8.44
2019-03-04T19:55:48.874Z,8.41
2019-03-04T19:58:18.298Z,8.33
2019-03-04T20:00:47.698Z,8.28
2019-03-04T20:03:16.971Z,8.34
2019-03-04T20:05:46.963Z,8.28
2019-03-04T20:08:17.069Z,8.26
2019-03-04T20:10:46.483Z,8.30
2019-03-04T20:13:15.930Z,8.39
2019-03-04T20:15:45.587Z,8.27
2019-03-04T20:18:14.965Z,8.20
2019-03-04T20:20:44.346Z,8.22
2019-03-04T20:23:13.770Z,8.02
2019-03-04T20:25:43.412Z,8.09
2019-03-04T20:28:13.078Z,8.09
2019-03-04T20:30:42.634Z,8.15
2019-03-04T20:33:12.120Z,7.94
2019-03-04T20:35:41.501Z,8.02
2019-03-04T20:38:22.635Z,7.93
2019-03-04T20:40:52.081Z,7.91
2019-03-04T20:43:21.826Z,7.91
2019-03-04T20:45:51.240Z,7.89
2019-03-04T20:48:20.974Z,7.89
2019-03-04T20:50:50.403Z,7.97
2019-03-04T20:53:19.955Z,8.13
2019-03-04T20:55:49.523Z,8.13
2019-03-04T20:58:19.034Z,8.26
2019-03-04T21:00:48.785Z,8.15
2019-03-04T21:03:18.188Z,8.28
2019-03-04T21:05:48.000Z,8.47
2019-03-04T21:08:17.726Z,8.48
2019-03-04T21:10:50.884Z,8.42
2019-03-04T21:13:23.604Z,8.39
2019-03-04T21:15:53.639Z,8.45
2019-03-04T21:18:23.584Z,8.42
2019-03-04T21:20:53.383Z,8.33
2019-03-04T21:23:25.979Z,8.43
2019-03-04T21:26:13.332Z,8.39
2019-03-04T21:28:48.686Z,8.36
2019-03-04T21:31:39.035Z,8.33
2019-03-04T21:34:12.185Z,8.35
2019-03-04T21:37:02.918Z,8.37
2019-03-04T21:39:48.422Z,8.24
2019-03-04T21:42:26.452Z,8.35
2019-03-04T21:45:11.268Z,8.24
2019-03-04T21:47:52.696Z,8.24
2019-03-04T21:50:41.102Z,8.27
2019-03-04T21:53:19.174Z,8.29
2019-03-04T21:55:51.583Z,8.21
2019-03-04T21:58:20.934Z,8.19
2019-03-04T22:00:55.915Z,8.33
2019-03-04T22:03:25.851Z,8.34
2019-03-04T22:05:55.164Z,8.28
2019-03-04T22:08:24.608Z,8.26
2019-03-04T22:10:54.368Z,8.33
2019-03-04T22:13:24.021Z,8.41
2019-03-04T22:15:53.767Z,8.34
2019-03-04T22:18:24.674Z,8.34
2019-03-04T22:20:55.882Z,8.30
2019-03-04T22:23:25.682Z,8.25
2019-03-04T22:26:01.825Z,8.21
2019-03-04T22:28:26.879Z,8.20
2019-03-04T22:30:56.630Z,8.27
2019-03-04T22:33:26.350Z,8.21
2019-03-04T22:35:55.698Z,8.31
2019-03-04T22:38:25.349Z,8.26
2019-03-04T22:40:54.619Z,8.39
2019-03-04T22:43:24.008Z,8.42
2019-03-04T22:45:53.485Z,8.44
2019-03-04T22:48:22.994Z,8.41
2019-03-04T22:50:52.325Z,8.48
2019-03-04T22:53:21.762Z,8.47
2019-03-04T22:55:51.336Z,8.42
2019-03-04T22:58:28.549Z,8.50
2019-03-04T23:00:56.283Z,8.40
2019-03-04T23:03:37.701Z,8.47
2019-03-04T23:06:15.937Z,8.44
2019-03-04T23:08:45.239Z,8.44
2019-03-04T23:11:14.916Z,8.44
2019-03-04T23:13:56.327Z,8.43
2019-03-04T23:16:28.707Z,8.41
2019-03-04T23:18:58.036Z,8.42
2019-03-04T23:21:27.741Z,8.40
2019-03-04T23:23:57.148Z,8.37
2019-03-04T23:26:26.445Z,8.36
2019-03-04T23:28:55.749Z,8.33
2019-03-04T23:31:25.029Z,8.33
2019-03-04T23:33:54.488Z,8.31
2019-03-04T23:36:23.852Z,8.34
2019-03-04T23:38:53.152Z,8.28
2019-03-04T23:41:22.435Z,8.31
2019-03-04T23:43:51.733Z,8.33
2019-03-04T23:46:21.044Z,8.30
2019-03-04T23:48:50.383Z,8.39
2019-03-04T23:51:19.692Z,8.21
2019-03-04T23:53:48.995Z,8.29
2019-03-04T23:56:18.252Z,8.20
2019-03-04T23:58:47.545Z,8.28
